Time;durP1;ratioP1;P1;durP2;ratioP2;P2;SDS_P1;SDS_P2;PMS_P1;PMS_P2;Temp;Humidity;BMP_temperature;BMP_pressure;BME280_temperature;BME280_humidity;BME280_pressure;Samples;Min_cycle;Max_cycle;Signal;HPM_P1;HPM_P2
2023/08/19 00:01:35;;;;;;;0.70;0.70;;;19.70;99.90;;;;;;5054274;28;20048;-82
2023/08/19 00:04:00;;;;;;;0.60;0.60;;;19.70;99.90;;;;;;5053894;28;20096;-82
2023/08/19 00:06:39;;;;;;;0.70;0.70;;;19.70;99.90;;;;;;5053698;28;20036;-82
2023/08/19 00:09:07;;;;;;;0.52;0.52;;;19.60;99.90;;;;;;5053340;28;20048;-82
2023/08/19 00:11:34;;;;;;;1.30;0.40;;;19.60;99.90;;;;;;5049473;28;20064;-82
2023/08/19 00:14:00;;;;;;;1.58;0.82;;;19.60;99.90;;;;;;5035611;28;20060;-82
2023/08/19 00:16:26;;;;;;;3.13;1.17;;;19.60;99.90;;;;;;5015984;28;20592;-82
2023/08/19 00:18:52;;;;;;;0.68;0.68;;;19.60;99.90;;;;;;5033305;28;20036;-82
2023/08/19 00:21:19;;;;;;;0.50;0.50;;;19.60;99.90;;;;;;5038534;28;20041;-82
2023/08/19 00:23:45;;;;;;;0.35;0.35;;;19.50;99.90;;;;;;5042602;28;20075;-82
2023/08/19 00:26:13;;;;;;;1.50;1.00;;;19.50;99.90;;;;;;5033278;28;20486;-82
2023/08/19 00:28:40;;;;;;;0.60;0.60;;;19.50;99.90;;;;;;5032302;28;20051;-82
2023/08/19 00:31:09;;;;;;;0.30;0.30;;;19.50;99.90;;;;;;5033173;28;20162;-82
2023/08/19 00:33:35;;;;;;;0.38;0.38;;;19.40;99.90;;;;;;5031989;28;20041;-82
2023/08/19 00:36:02;;;;;;;1.30;0.63;;;19.40;99.90;;;;;;5035118;28;20113;-82
2023/08/19 00:38:28;;;;;;;0.20;0.20;;;19.40;99.90;;;;;;5049009;28;20117;-82
2023/08/19 00:40:54;;;;;;;0.40;0.40;;;19.30;99.90;;;;;;5033667;28;20052;-82
2023/08/19 00:43:19;;;;;;;0.40;0.40;;;19.30;99.90;;;;;;5017848;28;20044;-82
2023/08/19 00:45:48;;;;;;;0.82;0.82;;;19.20;99.90;;;;;;5034421;28;20040;-82
2023/08/19 00:48:16;;;;;;;0.75;0.75;;;19.20;99.90;;;;;;5033197;28;20098;-82
2023/08/19 00:50:41;;;;;;;;;;;19.20;99.90;;;;;;5049524;28;20501;-83
2023/08/19 00:53:08;;;;;;;0.30;0.30;;;19.10;99.90;;;;;;5034016;28;19974;-82
2023/08/19 00:55:35;;;;;;;1.65;0.95;;;19.00;99.90;;;;;;5041916;28;20044;-82
2023/08/19 00:58:03;;;;;;;0.32;0.32;;;19.00;99.90;;;;;;5038405;28;20059;-82
2023/08/19 01:00:34;;;;;;;0.30;0.30;;;19.00;99.90;;;;;;5035978;28;20056;-82
2023/08/19 01:03:00;;;;;;;0.30;0.30;;;18.90;99.90;;;;;;5041754;28;20041;-82
2023/08/19 01:05:48;;;;;;;0.70;0.70;;;18.90;99.90;;;;;;5044892;28;20171;-82
2023/08/19 01:08:20;;;;;;;0.40;0.40;;;18.90;99.90;;;;;;5038397;28;20033;-82
2023/08/19 01:10:59;;;;;;;0.50;0.50;;;18.80;99.90;;;;;;5039728;28;20194;-82
2023/08/19 01:13:32;;;;;;;0.45;0.45;;;18.80;99.90;;;;;;5038379;28;20044;-82
2023/08/19 01:16:11;;;;;;;0.47;0.47;;;18.70;99.90;;;;;;5035513;28;20672;-82
2023/08/19 01:18:39;;;;;;;0.32;0.32;;;18.70;99.90;;;;;;5038278;28;20577;-82
2023/08/19 01:21:06;;;;;;;1.02;0.73;;;18.70;99.90;;;;;;5020830;28;20102;-81
2023/08/19 01:23:54;;;;;;;0.40;0.40;;;18.70;99.90;;;;;;5037421;28;20040;-82
2023/08/19 01:26:20;;;;;;;0.35;0.35;;;18.60;99.90;;;;;;5037182;28;20048;-82
2023/08/19 01:28:46;;;;;;;0.30;0.30;;;18.60;99.90;;;;;;5031798;28;20045;-82
2023/08/19 01:31:12;;;;;;;0.38;0.38;;;18.60;99.90;;;;;;5036146;28;20405;-82
2023/08/19 01:33:38;;;;;;;0.35;0.35;;;18.60;99.90;;;;;;5036552;28;20062;-82
2023/08/19 01:36:31;;;;;;;0.40;0.40;;;18.50;99.90;;;;;;5035671;28;20187;-82
2023/08/19 01:39:08;;;;;;;0.35;0.35;;;18.50;99.90;;;;;;5036734;28;20080;-82
2023/08/19 01:41:34;;;;;;;0.40;0.40;;;18.50;99.90;;;;;;5036228;28;20179;-82
2023/08/19 01:44:01;;;;;;;0.40;0.40;;;18.50;99.90;;;;;;5037644;28;20040;-82
2023/08/19 01:46:28;;;;;;;0.30;0.30;;;18.50;99.90;;;;;;5038532;28;20041;-82
2023/08/19 01:48:55;;;;;;;0.30;0.30;;;18.50;99.90;;;;;;5039508;28;20040;-82
2023/08/19 01:51:21;;;;;;;0.50;0.50;;;18.50;99.90;;;;;;5037076;28;20059;-82
2023/08/19 01:53:47;;;;;;;0.65;0.65;;;18.50;99.90;;;;;;5038614;28;20041;-82
2023/08/19 01:56:12;;;;;;;0.60;0.60;;;18.40;99.90;;;;;;5034876;28;20053;-82
2023/08/19 01:58:38;;;;;;;0.30;0.30;;;18.40;99.90;;;;;;5038431;28;20430;-82
2023/08/19 02:01:04;;;;;;;0.30;0.30;;;18.40;99.90;;;;;;5036853;28;20045;-82
2023/08/19 02:03:29;;;;;;;0.30;0.30;;;18.40;99.90;;;;;;5036998;28;20044;-82
2023/08/19 02:05:55;;;;;;;0.38;0.38;;;18.40;99.90;;;;;;5037983;28;20047;-82
2023/08/19 02:08:21;;;;;;;0.30;0.30;;;18.40;99.90;;;;;;5038332;28;20037;-83
2023/08/19 02:10:47;;;;;;;0.22;0.22;;;18.40;99.90;;;;;;5040117;28;20505;-82
2023/08/19 02:13:12;;;;;;;0.30;0.30;;;18.40;99.90;;;;;;5046816;28;20098;-82
2023/08/19 02:15:38;;;;;;;0.55;0.55;;;18.30;99.90;;;;;;5049452;28;20048;-82
2023/08/19 02:18:04;;;;;;;0.20;0.20;;;18.30;99.90;;;;;;5043109;28;20989;-82
2023/08/19 02:20:35;;;;;;;0.43;0.43;;;18.30;99.90;;;;;;5045233;28;20041;-82
2023/08/19 02:23:05;;;;;;;0.55;0.55;;;18.30;99.90;;;;;;5045132;28;20090;-82
2023/08/19 02:25:35;;;;;;;0.50;0.50;;;18.30;99.90;;;;;;5051040;28;20135;-82
2023/08/19 02:28:01;;;;;;;0.35;0.35;;;18.30;99.90;;;;;;5048999;28;20633;-82
2023/08/19 02:30:27;;;;;;;0.40;0.40;;;18.30;99.90;;;;;;5047341;28;20136;-82
2023/08/19 02:32:52;;;;;;;0.30;0.30;;;18.30;99.90;;;;;;5043739;28;20045;-82
2023/08/19 02:35:19;;;;;;;0.30;0.30;;;18.20;99.90;;;;;;5070368;28;20048;-82
2023/08/19 02:37:45;;;;;;;1.52;0.75;;;18.20;99.90;;;;;;5041093;28;20048;-82
2023/08/19 02:40:10;;;;;;;0.40;0.40;;;18.20;99.90;;;;;;5028664;28;20487;-82
2023/08/19 02:42:36;;;;;;;0.50;0.50;;;18.20;99.90;;;;;;5042842;28;20072;-82
2023/08/19 02:45:02;;;;;;;0.55;0.55;;;18.20;99.90;;;;;;5041665;28;20044;-82
2023/08/19 02:47:28;;;;;;;0.35;0.35;;;18.20;99.90;;;;;;5041859;28;20044;-81
2023/08/19 02:49:55;;;;;;;0.40;0.40;;;18.10;99.90;;;;;;5024814;28;20054;-82
2023/08/19 02:52:20;;;;;;;0.40;0.40;;;18.10;99.90;;;;;;5043239;28;20786;-82
2023/08/19 02:54:46;;;;;;;0.98;0.57;;;18.10;99.90;;;;;;5042422;28;20060;-82
2023/08/19 02:57:12;;;;;;;0.43;0.40;;;18.00;99.90;;;;;;5044873;28;20405;-82
2023/08/19 02:59:37;;;;;;;0.30;0.30;;;18.00;99.90;;;;;;5045186;28;20604;-81
2023/08/19 03:02:03;;;;;;;0.30;0.30;;;18.00;99.90;;;;;;5063432;28;20056;-82
2023/08/19 03:04:28;;;;;;;0.30;0.30;;;18.00;99.90;;;;;;5047102;28;20098;-82
2023/08/19 03:06:54;;;;;;;0.30;0.30;;;17.90;99.90;;;;;;5051762;28;20834;-83
2023/08/19 03:09:20;;;;;;;0.50;0.50;;;18.00;99.90;;;;;;5050197;28;20394;-82
2023/08/19 03:11:46;;;;;;;0.73;0.73;;;18.00;99.90;;;;;;5051362;28;20521;-82
2023/08/19 03:14:11;;;;;;;0.60;0.60;;;18.00;99.90;;;;;;5051981;28;20155;-82
2023/08/19 03:16:37;;;;;;;1.05;0.93;;;18.00;99.90;;;;;;5052077;28;20266;-82
2023/08/19 03:19:03;;;;;;;0.50;0.50;;;18.00;99.90;;;;;;5048552;28;20045;-82
2023/08/19 03:21:28;;;;;;;0.77;0.77;;;18.10;99.90;;;;;;5048820;28;20083;-82
2023/08/19 03:23:54;;;;;;;0.52;0.52;;;18.10;99.90;;;;;;5046643;28;20052;-82
2023/08/19 03:26:19;;;;;;;0.50;0.50;;;18.00;99.90;;;;;;5049760;28;20106;-82
2023/08/19 03:28:46;;;;;;;0.57;0.57;;;18.10;99.90;;;;;;5035618;28;20072;-82
2023/08/19 03:31:12;;;;;;;0.57;0.57;;;18.20;99.90;;;;;;5067240;28;20071;-82
2023/08/19 03:33:41;;;;;;;1.35;1.25;;;18.20;99.90;;;;;;5041779;28;20588;-82
2023/08/19 03:36:08;;;;;;;0.75;0.75;;;18.20;99.90;;;;;;5041695;28;20052;-82
2023/08/19 03:38:33;;;;;;;0.47;0.47;;;18.20;99.90;;;;;;5041164;28;20086;-81
2023/08/19 03:40:59;;;;;;;0.40;0.40;;;18.20;99.90;;;;;;5042337;28;20512;-82
2023/08/19 03:43:25;;;;;;;0.50;0.50;;;18.20;99.90;;;;;;5039213;28;20036;-82
2023/08/19 03:45:50;;;;;;;0.30;0.30;;;18.20;99.90;;;;;;5039929;28;20040;-82
2023/08/19 03:48:16;;;;;;;0.60;0.60;;;18.20;99.90;;;;;;5027237;28;20029;-82
2023/08/19 03:50:41;;;;;;;0.40;0.40;;;18.20;99.90;;;;;;5039622;28;20032;-82
2023/08/19 03:53:07;;;;;;;0.50;0.50;;;18.30;99.90;;;;;;5044939;28;20166;-81
2023/08/19 03:55:33;;;;;;;0.40;0.40;;;18.30;99.90;;;;;;5048216;28;20512;-82
2023/08/19 03:57:59;;;;;;;0.43;0.43;;;18.30;99.90;;;;;;5040367;28;20048;-82
2023/08/19 04:00:24;;;;;;;0.40;0.40;;;18.30;99.90;;;;;;5038169;28;20102;-82
2023/08/19 04:02:50;;;;;;;3.10;0.70;;;18.20;99.90;;;;;;5040532;28;20036;-82
2023/08/19 04:05:16;;;;;;;0.40;0.40;;;18.20;99.90;;;;;;5042960;28;20072;-82
2023/08/19 04:07:42;;;;;;;0.60;0.60;;;18.20;99.90;;;;;;5039382;28;20047;-82
2023/08/19 04:10:08;;;;;;;0.50;0.50;;;18.20;99.90;;;;;;5049457;28;20045;-82
2023/08/19 04:12:34;;;;;;;0.63;0.63;;;18.20;99.90;;;;;;5056491;28;20139;-82
2023/08/19 04:15:00;;;;;;;0.45;0.45;;;18.10;99.90;;;;;;5056942;28;20060;-82
2023/08/19 04:17:26;;;;;;;0.85;0.85;;;18.10;99.90;;;;;;5053952;28;20047;-82
2023/08/19 04:19:51;;;;;;;0.30;0.30;;;18.10;99.90;;;;;;5056631;28;20097;-82
2023/08/19 04:22:18;;;;;;;0.65;0.65;;;18.10;99.90;;;;;;5055187;28;20560;-82
2023/08/19 04:24:50;;;;;;;0.50;0.50;;;18.10;99.90;;;;;;5057782;28;20065;-81
2023/08/19 04:27:16;;;;;;;0.50;0.50;;;18.10;99.90;;;;;;5055795;28;20090;-82
2023/08/19 04:29:42;;;;;;;0.40;0.40;;;18.10;99.90;;;;;;5057317;28;20064;-82
2023/08/19 04:32:08;;;;;;;0.40;0.40;;;18.10;99.90;;;;;;5055618;28;20045;-82
2023/08/19 04:34:33;;;;;;;0.57;0.57;;;18.10;99.90;;;;;;5056840;28;20071;-82
2023/08/19 04:36:59;;;;;;;0.40;0.40;;;18.10;99.90;;;;;;5055287;28;20037;-82
2023/08/19 04:39:25;;;;;;;0.73;0.70;;;18.10;99.90;;;;;;5055516;28;20041;-82
2023/08/19 04:41:51;;;;;;;0.50;0.50;;;18.20;99.90;;;;;;5053368;28;20044;-82
2023/08/19 04:44:17;;;;;;;0.45;0.45;;;18.20;99.90;;;;;;5056504;28;20759;-82
2023/08/19 04:46:43;;;;;;;0.35;0.35;;;18.20;99.90;;;;;;5052405;28;20041;-82
2023/08/19 04:49:09;;;;;;;0.40;0.40;;;18.20;99.90;;;;;;5052751;28;20048;-82
2023/08/19 04:51:35;;;;;;;0.50;0.50;;;18.30;99.90;;;;;;5053550;28;20155;-81
2023/08/19 04:54:01;;;;;;;0.82;0.82;;;18.30;99.90;;;;;;5053950;28;20080;-81
2023/08/19 04:56:26;;;;;;;0.40;0.40;;;18.30;99.90;;;;;;5054738;28;20048;-82
2023/08/19 04:58:52;;;;;;;1.00;0.93;;;18.30;99.90;;;;;;5056495;28;20437;-82
2023/08/19 05:01:18;;;;;;;0.88;0.88;;;18.40;99.90;;;;;;5055486;28;20904;-82
2023/08/19 05:03:44;;;;;;;0.50;0.50;;;18.50;99.90;;;;;;5055402;28;20044;-82
2023/08/19 05:06:09;;;;;;;0.85;0.85;;;18.50;99.90;;;;;;5062409;28;20037;-82
2023/08/19 05:08:36;;;;;;;0.63;0.63;;;18.70;99.90;;;;;;5044886;28;20052;-82
2023/08/19 05:11:02;;;;;;;1.52;0.60;;;18.70;99.90;;;;;;5054534;28;20064;-82
2023/08/19 05:13:28;;;;;;;0.43;0.43;;;18.80;99.90;;;;;;5045251;28;20131;-82
2023/08/19 05:15:54;;;;;;;0.43;0.43;;;18.90;99.90;;;;;;5048956;28;20135;-82
2023/08/19 05:18:19;;;;;;;1.55;1.45;;;19.10;99.90;;;;;;5045887;28;20044;-82
2023/08/19 05:20:46;;;;;;;1.50;1.40;;;19.20;99.90;;;;;;5046744;28;20528;-82
2023/08/19 05:23:12;;;;;;;0.85;0.85;;;19.30;99.90;;;;;;5034360;28;20044;-82
2023/08/19 05:25:38;;;;;;;1.05;1.05;;;19.50;99.90;;;;;;5047015;28;20060;-82
2023/08/19 05:28:04;;;;;;;1.35;0.90;;;19.60;99.90;;;;;;5040359;28;20114;-82
2023/08/19 05:30:29;;;;;;;1.23;1.13;;;19.70;99.90;;;;;;5049565;28;20061;-82
2023/08/19 05:32:57;;;;;;;1.20;1.10;;;19.80;99.90;;;;;;5049331;28;20043;-82
2023/08/19 05:35:23;;;;;;;1.83;1.15;;;19.90;99.90;;;;;;5041232;28;20158;-82
2023/08/19 05:37:49;;;;;;;1.75;1.17;;;19.90;99.90;;;;;;5037276;28;20137;-81
2023/08/19 05:40:14;;;;;;;0.80;0.80;;;20.00;99.90;;;;;;5038805;28;20604;-81
2023/08/19 05:42:40;;;;;;;2.70;1.30;;;20.00;99.90;;;;;;5036965;28;20045;-82
2023/08/19 05:45:07;;;;;;;1.17;1.15;;;20.00;99.90;;;;;;5037473;28;20041;-81
2023/08/19 05:47:32;;;;;;;1.08;1.08;;;20.10;99.90;;;;;;5038837;28;20041;-82
2023/08/19 05:49:58;;;;;;;0.32;0.32;;;20.10;99.90;;;;;;5039100;28;20865;-82
2023/08/19 05:52:24;;;;;;;0.77;0.60;;;20.10;99.90;;;;;;5020933;28;20048;-82
2023/08/19 05:54:50;;;;;;;0.55;0.55;;;20.10;99.90;;;;;;5037726;28;20037;-81
2023/08/19 05:57:16;;;;;;;0.82;0.82;;;20.10;99.90;;;;;;5039770;28;20102;-81
2023/08/19 05:59:42;;;;;;;0.80;0.80;;;20.10;99.90;;;;;;5037218;28;20044;-81
2023/08/19 06:02:07;;;;;;;0.82;0.82;;;20.20;99.90;;;;;;5037646;28;20041;-81
2023/08/19 06:04:33;;;;;;;0.77;0.77;;;20.20;99.90;;;;;;5036968;28;20258;-81
2023/08/19 06:06:59;;;;;;;1.63;1.52;;;20.20;99.90;;;;;;5037131;28;20049;-81
2023/08/19 06:09:24;;;;;;;0.60;0.60;;;20.30;99.90;;;;;;5037863;28;20048;-81
2023/08/19 06:11:52;;;;;;;0.60;0.60;;;20.40;99.90;;;;;;5056713;28;20064;-81
2023/08/19 06:14:18;;;;;;;1.27;1.27;;;20.40;99.90;;;;;;5029990;28;20420;-80
2023/08/19 06:16:44;;;;;;;0.77;0.77;;;20.50;99.90;;;;;;5038517;28;20044;-80
2023/08/19 06:19:11;;;;;;;0.52;0.52;;;20.50;99.90;;;;;;5044736;28;20052;-80
2023/08/19 06:21:37;;;;;;;0.70;0.70;;;20.60;99.90;;;;;;5038657;28;20044;-80
2023/08/19 06:24:04;;;;;;;0.57;0.57;;;20.60;99.90;;;;;;5038018;28;20045;-81
2023/08/19 06:26:29;;;;;;;0.45;0.45;;;20.60;99.90;;;;;;5040619;28;20271;-82
2023/08/19 06:28:55;;;;;;;0.40;0.40;;;20.70;99.90;;;;;;5037775;28;20478;-80
2023/08/19 06:31:21;;;;;;;0.60;0.60;;;20.70;99.90;;;;;;5042520;28;20064;-79
2023/08/19 06:33:47;;;;;;;0.52;0.52;;;20.70;99.90;;;;;;5042920;28;20048;-80
2023/08/19 06:36:21;;;;;;;0.40;0.40;;;20.80;99.90;;;;;;5042131;28;20413;-80
2023/08/19 06:38:50;;;;;;;0.88;0.88;;;20.80;99.90;;;;;;5041288;28;20075;-80
2023/08/19 06:41:17;;;;;;;0.90;0.75;;;20.80;99.90;;;;;;5041204;28;20758;-82
2023/08/19 06:43:43;;;;;;;0.50;0.50;;;20.80;99.90;;;;;;5041540;28;20083;-81
2023/08/19 06:46:11;;;;;;;0.70;0.70;;;20.90;99.90;;;;;;5039747;28;20083;-81
2023/08/19 06:48:37;;;;;;;;;;;20.90;99.90;;;;;;5038062;28;20091;-82
2023/08/19 06:51:03;;;;;;;0.40;0.40;;;20.90;99.90;;;;;;5039544;28;19993;-81
2023/08/19 06:53:30;;;;;;;1.10;0.68;;;20.90;99.90;;;;;;5059284;28;20040;-81
2023/08/19 06:56:08;;;;;;;0.40;0.40;;;20.90;99.90;;;;;;5042351;28;20044;-81
2023/08/19 06:58:40;;;;;;;0.70;0.70;;;20.90;99.90;;;;;;5041344;28;20047;-82
2023/08/19 07:01:14;;;;;;;0.80;0.80;;;21.00;99.90;;;;;;5038153;28;20925;-81
2023/08/19 07:03:40;;;;;;;0.88;0.88;;;21.00;99.90;;;;;;5039945;28;20047;-80
2023/08/19 07:06:07;;;;;;;0.52;0.52;;;21.00;99.90;;;;;;5043989;28;20059;-79
2023/08/19 07:08:36;;;;;;;0.80;0.80;;;21.00;99.90;;;;;;5070197;28;20129;-79
2023/08/19 07:11:02;;;;;;;0.77;0.77;;;21.00;99.90;;;;;;5069125;28;20067;-79
2023/08/19 07:13:28;;;;;;;1.15;1.15;;;21.10;99.90;;;;;;5069510;28;20599;-78
2023/08/19 07:16:04;;;;;;;0.70;0.70;;;21.10;99.90;;;;;;5047797;28;20530;-78
2023/08/19 07:18:37;;;;;;;0.70;0.70;;;21.10;99.90;;;;;;5067846;28;20086;-78
2023/08/19 07:21:04;;;;;;;0.40;0.40;;;21.20;99.90;;;;;;5062116;28;20115;-78
2023/08/19 07:23:30;;;;;;;0.75;0.75;;;21.20;99.90;;;;;;5050341;28;20052;-78
2023/08/19 07:25:58;;;;;;;0.88;0.88;;;21.30;99.90;;;;;;5045826;28;20063;-78
2023/08/19 07:28:24;;;;;;;0.70;0.70;;;21.30;99.90;;;;;;5050396;28;20755;-78
2023/08/19 07:30:51;;;;;;;0.93;0.93;;;21.30;99.90;;;;;;5051407;28;20036;-79
2023/08/19 07:33:17;;;;;;;0.65;0.65;;;21.30;99.90;;;;;;5051803;28;20051;-79
2023/08/19 07:35:44;;;;;;;1.33;1.27;;;21.40;99.90;;;;;;5031925;28;20040;-79
2023/08/19 07:38:10;;;;;;;1.05;0.95;;;21.40;99.90;;;;;;5050739;28;20603;-78
2023/08/19 07:40:35;;;;;;;0.65;0.65;;;21.40;99.90;;;;;;5059025;28;20040;-78
2023/08/19 07:43:01;;;;;;;0.47;0.47;;;21.40;99.90;;;;;;5043937;28;20063;-79
2023/08/19 07:45:27;;;;;;;1.38;1.35;;;21.50;99.90;;;;;;5059071;28;20131;-81
2023/08/19 07:47:52;;;;;;;0.52;0.52;;;21.40;99.90;;;;;;5040824;28;20041;-78
2023/08/19 07:50:18;;;;;;;1.17;1.10;;;21.50;99.90;;;;;;5038927;28;20159;-80
2023/08/19 07:52:44;;;;;;;1.02;0.65;;;21.50;99.90;;;;;;5039642;28;20144;-79
2023/08/19 07:55:10;;;;;;;0.95;0.95;;;21.60;99.90;;;;;;5040544;28;20040;-80
2023/08/19 07:57:36;;;;;;;0.68;0.68;;;21.60;99.90;;;;;;5039248;28;20068;-80
2023/08/19 08:00:02;;;;;;;0.50;0.50;;;21.60;99.90;;;;;;5040087;28;20308;-80
2023/08/19 08:02:28;;;;;;;0.75;0.50;;;21.70;99.90;;;;;;5039786;28;20565;-80
2023/08/19 08:04:53;;;;;;;0.77;0.77;;;21.80;99.90;;;;;;5039498;28;20048;-81
2023/08/19 08:07:19;;;;;;;1.65;1.48;;;21.80;99.90;;;;;;5036319;28;20044;-80
2023/08/19 08:09:45;;;;;;;0.40;0.40;;;21.90;99.90;;;;;;5037940;28;20135;-84
2023/08/19 08:12:11;;;;;;;0.60;0.60;;;22.00;99.90;;;;;;5041184;28;20078;-83
2023/08/19 08:14:37;;;;;;;1.95;1.23;;;22.10;99.90;;;;;;5040001;28;20049;-83
2023/08/19 08:17:03;;;;;;;0.50;0.50;;;22.10;99.90;;;;;;5039504;28;20040;-83
2023/08/19 08:19:29;;;;;;;0.73;0.73;;;22.20;99.90;;;;;;5043066;28;20044;-83
2023/08/19 08:21:54;;;;;;;0.75;0.75;;;22.30;99.90;;;;;;5041700;28;20098;-83
2023/08/19 08:24:21;;;;;;;1.85;0.70;;;22.40;99.90;;;;;;5043537;28;20051;-82
2023/08/19 08:26:47;;;;;;;0.70;0.70;;;22.50;99.90;;;;;;5043355;28;20053;-83
2023/08/19 08:29:13;;;;;;;1.83;1.52;;;22.50;99.90;;;;;;5042159;28;20940;-83
2023/08/19 08:31:38;;;;;;;0.98;0.98;;;22.60;99.90;;;;;;5042346;28;20790;-83
2023/08/19 08:34:05;;;;;;;0.88;0.88;;;22.70;99.90;;;;;;5041053;28;20052;-83
2023/08/19 08:36:31;;;;;;;1.05;1.02;;;22.80;99.90;;;;;;5040512;28;20055;-82
2023/08/19 08:38:56;;;;;;;0.60;0.60;;;22.90;99.90;;;;;;5040297;28;20040;-82
2023/08/19 08:41:22;;;;;;;0.95;0.73;;;23.00;99.90;;;;;;5043418;28;20079;-83
2023/08/19 08:43:49;;;;;;;0.40;0.40;;;23.10;99.90;;;;;;5042883;28;20074;-83
2023/08/19 08:46:16;;;;;;;0.80;0.80;;;23.30;99.90;;;;;;5044241;28;20528;-83
2023/08/19 08:48:43;;;;;;;0.65;0.65;;;23.40;99.90;;;;;;5039877;28;20500;-82
2023/08/19 08:51:09;;;;;;;1.05;0.68;;;23.50;99.90;;;;;;5041176;28;20797;-84
2023/08/19 08:53:35;;;;;;;1.02;0.95;;;23.60;99.90;;;;;;5041637;28;20044;-83
2023/08/19 08:56:03;;;;;;;0.55;0.55;;;23.70;99.90;;;;;;5045111;28;20043;-82
2023/08/19 08:58:28;;;;;;;0.85;0.85;;;23.80;99.90;;;;;;5039600;28;20052;-83
2023/08/19 09:00:54;;;;;;;0.82;0.82;;;24.00;99.90;;;;;;5041468;28;21484;-83
2023/08/19 09:03:24;;;;;;;1.00;1.00;;;24.20;99.90;;;;;;5058591;28;20371;-72
2023/08/19 09:05:55;;;;;;;0.70;0.70;;;24.30;99.90;;;;;;5037688;28;20393;-73
2023/08/19 09:08:45;;;;;;;1.50;1.40;;;24.50;99.90;;;;;;5073436;28;20036;-73
2023/08/19 09:11:18;;;;;;;1.10;1.10;;;24.70;99.90;;;;;;5063542;28;20052;-73
2023/08/19 09:13:47;;;;;;;1.52;1.42;;;24.80;99.90;;;;;;5058539;28;20674;-73
2023/08/19 09:16:13;;;;;;;1.15;1.00;;;25.10;99.90;;;;;;5067010;28;20049;-73
2023/08/19 09:18:40;;;;;;;0.65;0.65;;;25.20;99.90;;;;;;5064747;28;20104;-73
2023/08/19 09:21:07;;;;;;;1.33;1.23;;;25.30;99.90;;;;;;5060457;28;20127;-74
2023/08/19 09:23:33;;;;;;;0.90;0.88;;;25.30;99.90;;;;;;5045010;28;20052;-73
2023/08/19 09:25:59;;;;;;;0.88;0.88;;;25.40;99.90;;;;;;5041061;28;20052;-74
2023/08/19 09:28:24;;;;;;;0.75;0.75;;;25.40;99.90;;;;;;5062950;28;20040;-74
2023/08/19 09:30:52;;;;;;;0.55;0.55;;;25.50;99.90;;;;;;5046680;28;20040;-74
2023/08/19 09:33:20;;;;;;;0.50;0.50;;;25.50;99.90;;;;;;5057167;28;20041;-74
2023/08/19 09:35:55;;;;;;;0.85;0.75;;;25.60;99.90;;;;;;5054649;28;20053;-74
2023/08/19 09:38:23;;;;;;;0.95;0.90;;;25.60;99.90;;;;;;5034648;28;20044;-74
2023/08/19 09:40:59;;;;;;;;;;;25.70;99.90;;;;;;5055904;28;20044;-74
2023/08/19 09:43:25;;;;;;;0.63;0.63;;;25.80;99.90;;;;;;5058856;28;19986;-74
2023/08/19 09:45:56;;;;;;;1.25;1.15;;;25.90;99.90;;;;;;5042756;28;20048;-74
2023/08/19 09:48:22;;;;;;;0.80;0.80;;;26.00;99.90;;;;;;5038935;28;20513;-74
2023/08/19 09:50:48;;;;;;;1.02;0.93;;;26.20;99.90;;;;;;5036227;28;20354;-74
2023/08/19 09:53:16;;;;;;;0.50;0.50;;;26.40;99.90;;;;;;5036322;28;20478;-74
2023/08/19 09:55:49;;;;;;;0.60;0.60;;;26.40;99.90;;;;;;5037292;28;20095;-74
2023/08/19 09:58:14;;;;;;;0.68;0.68;;;26.50;99.90;;;;;;5036799;28;20509;-74
2023/08/19 10:00:41;;;;;;;0.47;0.47;;;26.60;99.90;;;;;;5038004;28;20040;-74
2023/08/19 10:03:07;;;;;;;0.38;0.38;;;26.70;99.90;;;;;;5037650;28;20047;-74
2023/08/19 10:05:37;;;;;;;0.57;0.57;;;26.80;99.90;;;;;;5059190;28;20052;-74
2023/08/19 10:08:22;;;;;;;0.43;0.43;;;27.00;99.90;;;;;;5039498;28;20076;-74
2023/08/19 10:10:48;;;;;;;0.43;0.43;;;27.20;99.90;;;;;;5042182;28;20055;-74
2023/08/19 10:13:15;;;;;;;1.70;1.60;;;27.40;99.90;;;;;;5045268;28;20965;-74
2023/08/19 10:15:43;;;;;;;0.75;0.75;;;27.50;99.90;;;;;;5044557;28;20083;-74
2023/08/19 10:18:17;;;;;;;0.47;0.47;;;27.60;99.90;;;;;;5042337;28;20048;-74
2023/08/19 10:20:45;;;;;;;0.82;0.82;;;27.70;99.90;;;;;;5044728;28;20055;-74
2023/08/19 10:23:12;;;;;;;0.75;0.75;;;27.80;99.90;;;;;;5043629;28;20554;-74
2023/08/19 10:25:41;;;;;;;1.02;0.98;;;27.80;99.90;;;;;;5041521;28;20051;-74
2023/08/19 10:28:11;;;;;;;0.40;0.40;;;27.90;99.90;;;;;;5043100;28;20044;-74
2023/08/19 10:30:36;;;;;;;0.40;0.40;;;28.00;99.90;;;;;;5042953;28;20777;-75
2023/08/19 10:33:07;;;;;;;0.47;0.47;;;28.00;99.90;;;;;;5042724;28;20045;-75
2023/08/19 10:35:58;;;;;;;0.47;0.47;;;28.00;99.90;;;;;;5042562;28;20053;-75
2023/08/19 10:38:24;;;;;;;1.02;1.02;;;28.00;99.90;;;;;;5043731;28;20286;-75
2023/08/19 10:41:02;;;;;;;0.40;0.40;;;28.10;99.90;;;;;;5041877;28;20517;-74
2023/08/19 10:43:27;;;;;;;0.50;0.50;;;28.10;99.90;;;;;;5042233;28;20508;-74
2023/08/19 10:45:57;;;;;;;0.50;0.50;;;28.10;99.90;;;;;;5050810;28;20047;-75
2023/08/19 10:48:32;;;;;;;0.73;0.73;;;28.10;99.90;;;;;;5047586;28;20072;-74
2023/08/19 10:50:58;;;;;;;0.50;0.50;;;28.00;99.90;;;;;;5041182;28;20053;-73
2023/08/19 10:53:24;;;;;;;0.40;0.40;;;27.90;99.90;;;;;;5045110;28;20387;-74
2023/08/19 10:55:54;;;;;;;0.30;0.30;;;27.90;99.90;;;;;;5043577;28;20072;-74
2023/08/19 10:58:22;;;;;;;0.50;0.50;;;27.80;99.90;;;;;;5043684;28;20075;-74
2023/08/19 11:00:49;;;;;;;0.95;0.55;;;27.80;99.90;;;;;;5043967;28;20052;-74
2023/08/19 11:03:17;;;;;;;0.40;0.40;;;27.70;99.90;;;;;;5045441;28;20049;-74
2023/08/19 11:05:51;;;;;;;0.30;0.30;;;27.60;99.90;;;;;;5043985;28;20053;-73
2023/08/19 11:08:19;;;;;;;0.30;0.30;;;27.60;99.90;;;;;;5052614;28;20070;-74
2023/08/19 11:10:46;;;;;;;1.02;0.93;;;27.50;99.90;;;;;;5055181;28;20057;-73
2023/08/19 11:13:13;;;;;;;0.43;0.43;;;27.40;99.90;;;;;;5062226;28;20055;-73
2023/08/19 11:15:40;;;;;;;0.93;0.93;;;27.30;99.90;;;;;;5069631;28;20057;-73
2023/08/19 11:18:06;;;;;;;0.75;0.75;;;27.20;99.90;;;;;;5069429;28;20075;-74
2023/08/19 11:20:32;;;;;;;0.38;0.38;;;27.20;99.90;;;;;;5060706;28;20518;-74
2023/08/19 11:22:57;;;;;;;0.70;0.70;;;27.10;99.90;;;;;;5067166;28;20052;-74
2023/08/19 11:25:36;;;;;;;0.40;0.40;;;27.00;99.90;;;;;;5068609;28;20531;-74
2023/08/19 11:28:02;;;;;;;0.30;0.30;;;26.90;99.90;;;;;;5066306;28;20155;-75
2023/08/19 11:30:29;;;;;;;1.15;0.90;;;26.70;99.90;;;;;;5065967;28;20040;-74
2023/08/19 11:32:55;;;;;;;0.50;0.50;;;26.60;99.90;;;;;;5069125;28;20040;-74
2023/08/19 11:35:20;;;;;;;0.60;0.60;;;26.60;99.90;;;;;;5059457;28;20060;-74
2023/08/19 11:37:46;;;;;;;1.25;1.15;;;26.50;99.90;;;;;;5051863;28;20532;-74
2023/08/19 11:40:13;;;;;;;0.93;0.85;;;26.50;99.90;;;;;;5051919;28;20746;-74
2023/08/19 11:42:39;;;;;;;0.40;0.40;;;26.50;99.90;;;;;;5062291;28;20080;-74
2023/08/19 11:45:10;;;;;;;3.40;0.73;;;26.60;99.90;;;;;;5057384;28;20132;-74
2023/08/19 11:47:36;;;;;;;0.77;0.77;;;26.60;99.90;;;;;;5059490;28;21696;-74
2023/08/19 11:50:06;;;;;;;1.42;1.35;;;26.70;99.90;;;;;;5059782;28;20045;-74
2023/08/19 11:52:35;;;;;;;0.40;0.40;;;26.70;99.90;;;;;;5054839;28;20048;-74
2023/08/19 11:55:03;;;;;;;1.05;1.05;;;26.70;99.90;;;;;;5056662;28;20048;-74
2023/08/19 11:57:38;;;;;;;1.15;1.00;;;26.70;99.90;;;;;;5056998;28;20059;-74
2023/08/19 12:00:08;;;;;;;0.73;0.73;;;26.70;99.90;;;;;;5056200;28;20063;-74
2023/08/19 12:02:34;;;;;;;0.60;0.60;;;26.70;99.90;;;;;;5056835;28;20059;-74
2023/08/19 12:04:59;;;;;;;0.50;0.50;;;26.70;99.90;;;;;;5057521;28;20048;-74
2023/08/19 12:07:29;;;;;;;0.40;0.40;;;26.80;99.90;;;;;;5055481;28;20066;-74
2023/08/19 12:09:59;;;;;;;0.47;0.47;;;26.80;99.90;;;;;;5056629;28;20074;-74
2023/08/19 12:12:25;;;;;;;0.88;0.88;;;26.90;99.90;;;;;;5040321;28;20206;-74
2023/08/19 12:14:51;;;;;;;1.98;1.70;;;27.00;99.90;;;;;;5038681;28;21799;-74
2023/08/19 12:17:17;;;;;;;0.35;0.35;;;27.10;99.90;;;;;;5040504;28;20052;-74
2023/08/19 12:19:45;;;;;;;0.55;0.55;;;27.30;99.90;;;;;;5043526;28;20128;-74
2023/08/19 12:22:10;;;;;;;;;;;27.50;99.90;;;;;;5042057;28;20047;-74
2023/08/19 12:24:36;;;;;;;0.60;0.60;;;27.70;99.90;;;;;;5040958;28;19921;-74
2023/08/19 12:27:02;;;;;;;2.40;1.45;;;27.90;99.90;;;;;;5056616;28;20157;-74
2023/08/19 12:29:28;;;;;;;0.50;0.50;;;28.10;99.90;;;;;;5056619;28;20046;-74
2023/08/19 12:31:55;;;;;;;0.60;0.60;;;28.10;99.90;;;;;;5036963;28;20044;-73
2023/08/19 12:34:21;;;;;;;0.65;0.65;;;28.10;99.90;;;;;;5056769;28;20048;-74
2023/08/19 12:36:46;;;;;;;0.60;0.60;;;28.10;99.90;;;;;;5052870;28;20043;-74
2023/08/19 12:39:12;;;;;;;1.08;1.08;;;28.10;99.90;;;;;;5039564;28;20477;-75
2023/08/19 12:41:39;;;;;;;1.58;1.48;;;28.10;99.90;;;;;;5056308;28;20052;-74
2023/08/19 12:44:05;;;;;;;1.00;1.00;;;28.10;99.90;;;;;;5037315;28;20056;-74
2023/08/19 12:46:41;;;;;;;0.70;0.70;;;28.20;99.90;;;;;;5045641;28;20044;-74
2023/08/19 12:49:06;;;;;;;3.72;1.42;;;28.10;99.90;;;;;;5037411;28;20460;-74